EZY51MN EGPH-EGSS
Flight info
| Callsign | EZY51MN |
|---|---|
| Flight time | 0h 54m |
| Altitude | 33000 |
| Route | GOSAM P600 FENIK L612 ELBUS UL612 LISTO |
| Aircraft | A20N/M-SDE2E3FGHIJ1RWXYZ/LB1 |
Departure
| Time | 2026-05-04 10:11 |
|---|---|
| Airport | Edinburgh Airport (EGPH) |
Arrival
| Time | 2026-05-04 11:05 |
|---|---|
| Airport | London Stansted Airport (EGSS) |
| Time | Latitude | Longitude | Altitude | Speed | Heading |
|---|---|---|---|---|---|
| 2026-05-04 09:35 | 55.94895 | -3.36009 | 112 ft | 0 kts | 253° |
| 2026-05-04 10:02 | 55.94900 | -3.35979 | 112 ft | 4 kts | 253° |
| 2026-05-04 10:04 | 55.94914 | -3.35795 | 109 ft | 0 kts | 299° |
| 2026-05-04 10:08 | 55.95152 | -3.35931 | 112 ft | 14 kts | 323° |
| 2026-05-04 10:08 | 55.95240 | -3.35961 | 111 ft | 14 kts | 34° |
| 2026-05-04 10:08 | 55.95298 | -3.35809 | 111 ft | 16 kts | 57° |
| 2026-05-04 10:08 | 55.95359 | -3.35614 | 112 ft | 20 kts | 62° |
| 2026-05-04 10:09 | 55.95435 | -3.35402 | 112 ft | 15 kts | 48° |
| 2026-05-04 10:09 | 55.95490 | -3.35433 | 112 ft | 10 kts | 330° |
| 2026-05-04 10:09 | 55.95557 | -3.35504 | 111 ft | 12 kts | 321° |
| 2026-05-04 10:09 | 55.95550 | -3.35626 | 112 ft | 11 kts | 238° |
| 2026-05-04 10:10 | 55.95546 | -3.35638 | 112 ft | 0 kts | 238° |
| 2026-05-04 10:10 | 55.95544 | -3.35643 | 110 ft | 7 kts | 238° |
| 2026-05-04 10:11 | 55.95390 | -3.36105 | 108 ft | 78 kts | 239° |
| 2026-05-04 10:11 | 55.95012 | -3.37228 | 113 ft | 131 kts | 240° |
| 2026-05-04 10:11 | 55.94546 | -3.38619 | 647 ft | 122 kts | 241° |
| 2026-05-04 10:11 | 55.94111 | -3.39894 | 1280 ft | 120 kts | 240° |
| 2026-05-04 10:12 | 55.93638 | -3.41251 | 1678 ft | 136 kts | 238° |
| 2026-05-04 10:12 | 55.93103 | -3.42712 | 2152 ft | 148 kts | 240° |
| 2026-05-04 10:12 | 55.92521 | -3.44364 | 2591 ft | 166 kts | 235° |
| 2026-05-04 10:12 | 55.91639 | -3.45887 | 3076 ft | 187 kts | 223° |
| 2026-05-04 10:13 | 55.90581 | -3.47463 | 3584 ft | 209 kts | 221° |
| 2026-05-04 10:13 | 55.89795 | -3.48611 | 3947 ft | 225 kts | 221° |
| 2026-05-04 10:13 | 55.88543 | -3.50440 | 4576 ft | 243 kts | 221° |
| 2026-05-04 10:13 | 55.87186 | -3.52432 | 5318 ft | 257 kts | 222° |
| 2026-05-04 10:14 | 55.85792 | -3.54489 | 6305 ft | 264 kts | 222° |
| 2026-05-04 10:14 | 55.84367 | -3.56599 | 7260 ft | 268 kts | 222° |
| 2026-05-04 10:16 | 55.73170 | -3.73151 | 12437 ft | 341 kts | 222° |
| 2026-05-04 10:16 | 55.71331 | -3.75851 | 13284 ft | 345 kts | 222° |
| 2026-05-04 10:16 | 55.69470 | -3.78583 | 14087 ft | 350 kts | 222° |
| 2026-05-04 10:16 | 55.67561 | -3.81382 | 14845 ft | 354 kts | 222° |
| 2026-05-04 10:17 | 55.65658 | -3.84169 | 15588 ft | 358 kts | 222° |
| 2026-05-04 10:17 | 55.63719 | -3.87007 | 16319 ft | 362 kts | 221° |
| 2026-05-04 10:19 | 55.48626 | -4.04892 | 20792 ft | 401 kts | 184° |
| 2026-05-04 10:19 | 55.45780 | -4.04455 | 21393 ft | 406 kts | 166° |
| 2026-05-04 10:19 | 55.43173 | -4.02758 | 21967 ft | 410 kts | 155° |
| 2026-05-04 10:19 | 55.40617 | -4.00517 | 22551 ft | 414 kts | 152° |
| 2026-05-04 10:20 | 55.38048 | -3.98163 | 23161 ft | 417 kts | 152° |
| 2026-05-04 10:20 | 55.35473 | -3.95850 | 23731 ft | 420 kts | 153° |
| 2026-05-04 10:20 | 55.32816 | -3.93532 | 24260 ft | 423 kts | 153° |
| 2026-05-04 10:20 | 55.30162 | -3.91265 | 24762 ft | 426 kts | 153° |
| 2026-05-04 10:21 | 55.27480 | -3.89001 | 25249 ft | 429 kts | 154° |
| 2026-05-04 10:21 | 55.24781 | -3.86736 | 25728 ft | 431 kts | 154° |
| 2026-05-04 10:21 | 55.22064 | -3.84461 | 26181 ft | 435 kts | 154° |
| 2026-05-04 10:21 | 55.19319 | -3.82167 | 26633 ft | 438 kts | 154° |
| 2026-05-04 10:22 | 55.13745 | -3.77515 | 27537 ft | 444 kts | 153° |
| 2026-05-04 10:22 | 55.10995 | -3.75225 | 27956 ft | 446 kts | 153° |
| 2026-05-04 10:22 | 55.08169 | -3.72874 | 28349 ft | 449 kts | 153° |
| 2026-05-04 10:23 | 55.05336 | -3.70521 | 28764 ft | 452 kts | 153° |
| 2026-05-04 10:23 | 55.02486 | -3.68158 | 29156 ft | 454 kts | 153° |
| 2026-05-04 10:25 | 54.82142 | -3.51396 | 31819 ft | 463 kts | 153° |
| 2026-05-04 10:25 | 54.79189 | -3.48979 | 32299 ft | 461 kts | 154° |
| 2026-05-04 10:25 | 54.76289 | -3.46609 | 32750 ft | 460 kts | 154° |
| 2026-05-04 10:25 | 54.73409 | -3.44258 | 32901 ft | 458 kts | 154° |
| 2026-05-04 10:26 | 54.70520 | -3.41904 | 33006 ft | 456 kts | 154° |
| 2026-05-04 10:26 | 54.64781 | -3.37238 | 33067 ft | 455 kts | 154° |
| 2026-05-04 10:27 | 54.59054 | -3.32597 | 33066 ft | 454 kts | 154° |
| 2026-05-04 10:27 | 54.53343 | -3.27983 | 33067 ft | 453 kts | 154° |
| 2026-05-04 10:28 | 54.47627 | -3.23380 | 33064 ft | 453 kts | 154° |
| 2026-05-04 10:28 | 54.41946 | -3.18818 | 33068 ft | 452 kts | 154° |
| 2026-05-04 10:29 | 54.36242 | -3.14253 | 33064 ft | 451 kts | 154° |
| 2026-05-04 10:29 | 54.30544 | -3.09706 | 33070 ft | 450 kts | 154° |
| 2026-05-04 10:30 | 54.24866 | -3.05189 | 33063 ft | 450 kts | 154° |
| 2026-05-04 10:30 | 54.19158 | -3.00662 | 33071 ft | 449 kts | 154° |
| 2026-05-04 10:31 | 54.13495 | -2.96185 | 33064 ft | 448 kts | 154° |
| 2026-05-04 10:32 | 53.93747 | -2.80678 | 33068 ft | 445 kts | 154° |
| 2026-05-04 10:33 | 53.88124 | -2.76291 | 33065 ft | 444 kts | 154° |
| 2026-05-04 10:33 | 53.82511 | -2.71926 | 33071 ft | 444 kts | 154° |
| 2026-05-04 10:34 | 53.76888 | -2.67565 | 33064 ft | 443 kts | 154° |
| 2026-05-04 10:34 | 53.71292 | -2.63238 | 33050 ft | 443 kts | 154° |
| 2026-05-04 10:35 | 53.65740 | -2.58958 | 33077 ft | 443 kts | 154° |
| 2026-05-04 10:35 | 53.60938 | -2.55266 | 33073 ft | 442 kts | 154° |
| 2026-05-04 10:36 | 53.55366 | -2.50994 | 33069 ft | 442 kts | 155° |
| 2026-05-04 10:36 | 53.49786 | -2.46727 | 33057 ft | 442 kts | 155° |
| 2026-05-04 10:37 | 53.44160 | -2.42439 | 33070 ft | 442 kts | 155° |
| 2026-05-04 10:37 | 53.38554 | -2.38178 | 33091 ft | 442 kts | 155° |
| 2026-05-04 10:39 | 53.18952 | -2.23372 | 33074 ft | 441 kts | 155° |
| 2026-05-04 10:40 | 53.13466 | -2.18790 | 33068 ft | 440 kts | 147° |
| 2026-05-04 10:40 | 53.08494 | -2.12829 | 33064 ft | 440 kts | 144° |
| 2026-05-04 10:41 | 53.03536 | -2.06750 | 33064 ft | 440 kts | 144° |
| 2026-05-04 10:41 | 52.98620 | -2.00774 | 32873 ft | 440 kts | 144° |
| 2026-05-04 10:41 | 52.96030 | -1.97639 | 32590 ft | 439 kts | 144° |
| 2026-05-04 10:42 | 52.93623 | -1.94728 | 32361 ft | 438 kts | 144° |
| 2026-05-04 10:42 | 52.91155 | -1.91750 | 32083 ft | 438 kts | 144° |
| 2026-05-04 10:42 | 52.88701 | -1.88791 | 31821 ft | 439 kts | 144° |
| 2026-05-04 10:42 | 52.86222 | -1.85807 | 31569 ft | 439 kts | 145° |
| 2026-05-04 10:43 | 52.83873 | -1.82984 | 31329 ft | 439 kts | 145° |
| 2026-05-04 10:44 | 52.66041 | -1.64508 | 28357 ft | 420 kts | 154° |
| 2026-05-04 10:45 | 52.63379 | -1.62225 | 27776 ft | 414 kts | 154° |
| 2026-05-04 10:45 | 52.61131 | -1.60298 | 27276 ft | 410 kts | 154° |
| 2026-05-04 10:45 | 52.58605 | -1.58133 | 26713 ft | 405 kts | 154° |
| 2026-05-04 10:45 | 52.56095 | -1.55985 | 26147 ft | 400 kts | 154° |
| 2026-05-04 10:46 | 52.53625 | -1.53873 | 25605 ft | 396 kts | 154° |
| 2026-05-04 10:46 | 52.51197 | -1.51800 | 25061 ft | 393 kts | 154° |
| 2026-05-04 10:46 | 52.48742 | -1.49707 | 24528 ft | 390 kts | 155° |
| 2026-05-04 10:46 | 52.46341 | -1.47662 | 23943 ft | 388 kts | 155° |
| 2026-05-04 10:47 | 52.43921 | -1.45605 | 23393 ft | 385 kts | 155° |
| 2026-05-04 10:47 | 52.41557 | -1.43598 | 22838 ft | 380 kts | 155° |
| 2026-05-04 10:47 | 52.39235 | -1.41628 | 22297 ft | 376 kts | 155° |
| 2026-05-04 10:47 | 52.36922 | -1.39668 | 21766 ft | 372 kts | 155° |
| 2026-05-04 10:49 | 52.20949 | -1.25356 | 19250 ft | 386 kts | 152° |
| 2026-05-04 10:49 | 52.18518 | -1.23043 | 18364 ft | 392 kts | 152° |
| 2026-05-04 10:50 | 52.16213 | -1.20866 | 17713 ft | 388 kts | 152° |
| 2026-05-04 10:51 | 52.05791 | -0.99638 | 15658 ft | 367 kts | 101° |
| 2026-05-04 10:52 | 52.05415 | -0.95682 | 15402 ft | 365 kts | 101° |
| 2026-05-04 10:52 | 52.05018 | -0.91610 | 15245 ft | 360 kts | 101° |
| 2026-05-04 10:52 | 52.04623 | -0.87666 | 15139 ft | 348 kts | 101° |
| 2026-05-04 10:54 | 52.02034 | -0.62899 | 13325 ft | 307 kts | 105° |
| 2026-05-04 10:54 | 52.01219 | -0.59797 | 13058 ft | 301 kts | 129° |
| 2026-05-04 10:56 | 51.91499 | -0.43418 | 10420 ft | 295 kts | 121° |
| 2026-05-04 10:56 | 51.90866 | -0.41488 | 10207 ft | 292 kts | 121° |
| 2026-05-04 10:56 | 51.89629 | -0.37701 | 10049 ft | 274 kts | 121° |
| 2026-05-04 10:57 | 51.89056 | -0.35936 | 9923 ft | 264 kts | 121° |
| 2026-05-04 10:57 | 51.87938 | -0.32472 | 9368 ft | 257 kts | 121° |
| 2026-05-04 10:57 | 51.87112 | -0.29919 | 8867 ft | 256 kts | 121° |
| 2026-05-04 10:57 | 51.86567 | -0.28237 | 8539 ft | 255 kts | 121° |
| 2026-05-04 10:58 | 51.85743 | -0.25697 | 8046 ft | 254 kts | 121° |
| 2026-05-04 10:58 | 51.84855 | -0.22978 | 7541 ft | 253 kts | 121° |
| 2026-05-04 10:58 | 51.84086 | -0.20645 | 7124 ft | 251 kts | 121° |
| 2026-05-04 10:58 | 51.83263 | -0.18161 | 6670 ft | 250 kts | 121° |
| 2026-05-04 10:59 | 51.82440 | -0.15688 | 6203 ft | 249 kts | 121° |
| 2026-05-04 10:59 | 51.81720 | -0.13538 | 5861 ft | 247 kts | 121° |
| 2026-05-04 10:59 | 51.80872 | -0.11032 | 5439 ft | 245 kts | 121° |
| 2026-05-04 10:59 | 51.80054 | -0.08625 | 5058 ft | 244 kts | 121° |
| 2026-05-04 11:00 | 51.79235 | -0.06242 | 4777 ft | 237 kts | 121° |
| 2026-05-04 11:01 | 51.79221 | 0.09489 | 2812 ft | 202 kts | 43° |
| 2026-05-04 11:02 | 51.80240 | 0.11023 | 2570 ft | 200 kts | 40° |
| 2026-05-04 11:02 | 51.81226 | 0.12510 | 2304 ft | 185 kts | 41° |
| 2026-05-04 11:05 | 51.88911 | 0.24387 | 339 ft | 0 kts | 77° |
| 2026-05-04 11:06 | 51.88912 | 0.24392 | 340 ft | 2 kts | 77° |
| 2026-05-04 11:06 | 51.88919 | 0.24442 | 349 ft | 7 kts | 81° |
| 2026-05-04 11:08 | 51.89076 | 0.25121 | 348 ft | 20 kts | 43° |
| 2026-05-04 11:10 | 51.88997 | 0.25732 | 349 ft | 2 kts | 44° |
| 2026-05-04 11:12 | 51.89007 | 0.25747 | 350 ft | 0 kts | 41° |